Time;durP1;ratioP1;P1;durP2;ratioP2;P2;SDS_P1;SDS_P2;PMS_P1;PMS_P2;Temp;Humidity;BMP_temperature;BMP_pressure;BME280_temperature;BME280_humidity;BME280_pressure;Samples;Min_cycle;Max_cycle;Signal;HPM_P1;HPM_P2
2021/08/06 00:04:27;;;;;;;4.90;4.50;;;;;;;13.94;85.49;98126.20;531867;1089;116033;-68
2021/08/06 00:14:34;;;;;;;4.33;3.83;;;;;;;13.92;86.02;98112.34;532176;1089;117965;-69
2021/08/06 00:24:41;;;;;;;4.43;3.95;;;;;;;13.86;85.93;98109.36;532261;1089;116674;-69
2021/08/06 00:34:48;;;;;;;5.40;4.90;;;;;;;13.81;86.13;98094.98;531907;1090;117202;-69
2021/08/06 00:44:55;;;;;;;4.97;4.47;;;;;;;13.79;86.54;98096.92;532560;1088;116673;-70
2021/08/06 00:55:01;;;;;;;6.37;5.87;;;;;;;13.78;86.78;98082.92;530544;1090;116073;-69
2021/08/06 01:05:13;;;;;;;5.97;5.47;;;;;;;13.79;87.19;98079.30;528330;1088;116900;-70
2021/08/06 01:15:20;;;;;;;5.70;5.30;;;;;;;13.81;87.00;98076.52;532572;1089;169943;-70
2021/08/06 01:25:48;;;;;;;4.33;4.00;;;;;;;13.81;86.79;98064.14;530517;1089;116444;-69
2021/08/06 01:35:55;;;;;;;4.58;3.63;;;;;;;13.82;87.24;98054.43;532492;1088;117019;-68
2021/08/06 01:46:08;;;;;;;3.33;3.03;;;;;;;13.80;87.27;98043.21;530374;1088;116463;-70
2021/08/06 01:56:19;;;;;;;3.17;2.87;;;;;;;13.78;87.15;98037.23;526019;1089;117320;-69
2021/08/06 02:06:26;;;;;;;3.40;3.20;;;;;;;13.78;87.31;98030.17;532599;1088;117275;-70
2021/08/06 02:16:34;;;;;;;3.57;3.27;;;;;;;13.83;87.69;98025.23;531780;1090;116932;-69
2021/08/06 02:26:43;;;;;;;2.93;2.67;;;;;;;13.81;87.72;98018.48;532533;1089;116140;-71
2021/08/06 02:36:50;;;;;;;2.57;2.43;;;;;;;13.80;88.04;98003.64;532572;1088;116637;-71
2021/08/06 02:46:56;;;;;;;2.10;1.83;;;;;;;13.75;87.80;98004.11;531469;1090;116640;-70
2021/08/06 02:57:03;;;;;;;2.13;2.00;;;;;;;13.72;87.96;97993.86;524589;1089;117014;-72
2021/08/06 03:07:11;;;;;;;1.70;1.60;;;;;;;13.67;88.42;97982.97;532650;1088;116095;-71
2021/08/06 03:17:17;;;;;;;1.60;1.50;;;;;;;13.67;88.49;97985.60;531830;1089;116591;-70
2021/08/06 03:27:23;;;;;;;1.33;1.23;;;;;;;13.63;88.52;97965.81;532553;1089;117498;-70
2021/08/06 03:37:31;;;;;;;1.30;1.20;;;;;;;13.52;88.63;97970.38;530861;1088;116829;-70
2021/08/06 03:47:38;;;;;;;1.47;1.37;;;;;;;13.53;88.55;97974.66;531773;1089;116319;-70
2021/08/06 03:57:55;;;;;;;1.10;1.03;;;;;;;13.53;89.11;97960.64;520947;1089;116853;-71
2021/08/06 04:08:07;;;;;;;1.40;1.10;;;;;;;13.47;88.61;97964.73;527026;1088;117230;-70
2021/08/06 04:18:13;;;;;;;0.93;0.93;;;;;;;13.45;88.67;97970.18;532497;1089;118236;-70
2021/08/06 04:28:20;;;;;;;1.50;1.40;;;;;;;13.44;88.77;97965.05;532410;1088;117561;-70
2021/08/06 04:38:27;;;;;;;1.37;1.07;;;;;;;13.43;88.77;97964.18;532396;1089;117601;-71
2021/08/06 04:48:34;;;;;;;0.50;0.50;;;;;;;13.51;88.75;97967.89;532480;1090;116802;-70
2021/08/06 04:58:41;;;;;;;0.90;0.70;;;;;;;13.56;88.67;97969.06;531227;1090;116250;-69
2021/08/06 05:08:49;;;;;;;2.40;1.30;;;;;;;13.61;88.37;97962.48;527892;1090;116675;-63
2021/08/06 05:18:56;;;;;;;1.13;1.03;;;;;;;13.55;88.58;97954.23;532431;1089;117379;-62
2021/08/06 05:29:02;;;;;;;0.80;0.70;;;;;;;13.56;88.36;97944.50;519457;1090;117108;-62
2021/08/06 05:39:09;;;;;;;1.40;1.00;;;;;;;13.49;88.49;97960.13;532313;1089;116587;-62
2021/08/06 05:49:15;;;;;;;1.33;1.30;;;;;;;13.48;88.21;97963.75;532479;1089;116170;-63
2021/08/06 05:59:22;;;;;;;1.47;1.37;;;;;;;13.50;88.41;97974.95;531735;1088;117499;-62
2021/08/06 06:09:28;;;;;;;2.27;2.00;;;;;;;13.53;88.21;97976.46;532527;1088;116737;-62
2021/08/06 06:19:36;;;;;;;1.60;1.50;;;;;;;13.58;88.06;97961.82;531903;1088;117297;-62
2021/08/06 06:29:44;;;;;;;2.93;1.93;;;;;;;13.56;88.36;97989.33;517875;1090;117310;-62
2021/08/06 06:39:50;;;;;;;2.10;1.73;;;;;;;13.55;88.47;97985.03;532525;1089;116329;-62
2021/08/06 06:49:57;;;;;;;2.90;2.67;;;;;;;13.52;88.27;97993.27;530871;1089;117274;-62
2021/08/06 07:00:04;;;;;;;2.60;2.40;;;;;;;13.57;88.26;98005.00;532435;1088;116750;-62
2021/08/06 07:10:12;;;;;;;1.97;1.87;;;;;;;13.64;88.03;97994.65;532626;1089;116738;-61
2021/08/06 07:20:20;;;;;;;1.75;1.48;;;;;;;13.70;87.68;98019.56;531248;1089;116811;-65
2021/08/06 07:30:27;;;;;;;1.25;1.15;;;;;;;13.70;87.63;98027.48;532393;1089;116327;-64
2021/08/06 07:40:34;;;;;;;1.67;1.57;;;;;;;13.79;87.53;98030.98;531834;1088;117193;-63
2021/08/06 07:50:41;;;;;;;1.20;1.20;;;;;;;13.85;87.26;98043.55;532519;1088;116060;-66
2021/08/06 08:00:48;;;;;;;4.10;2.10;;;;;;;13.96;86.99;98047.71;532545;1089;116218;-69
2021/08/06 08:10:55;;;;;;;2.18;1.50;;;;;;;14.04;86.93;98060.14;518301;1089;117389;-64
2021/08/06 08:21:03;;;;;;;1.75;1.30;;;;;;;14.07;86.60;98073.02;532356;1089;117156;-63
2021/08/06 08:31:10;;;;;;;2.40;1.60;;;;;;;14.07;86.28;98065.91;532477;1090;116653;-63
2021/08/06 08:41:17;;;;;;;2.38;2.08;;;;;;;14.08;86.05;98079.94;503967;1089;10001892;-63
2021/08/06 08:51:25;;;;;;;1.70;1.60;;;;;;;14.10;85.86;98083.24;520588;1088;172376;-61
2021/08/06 09:01:32;;;;;;;3.65;1.60;;;;;;;14.16;85.74;98090.55;531780;1089;116928;-61
2021/08/06 09:11:39;;;;;;;1.40;1.30;;;;;;;14.32;85.23;98100.34;532124;1089;117056;-64
2021/08/06 09:21:46;;;;;;;1.80;1.30;;;;;;;14.77;84.90;98110.72;522731;1088;116839;-65
2021/08/06 09:32:01;;;;;;;2.53;1.00;;;;;;;14.82;84.90;98113.72;525344;1089;116516;-65
2021/08/06 09:42:19;;;;;;;1.30;1.20;;;;;;;15.06;83.50;98112.10;516390;1088;116027;-66
2021/08/06 09:52:34;;;;;;;1.13;0.80;;;;;;;14.73;83.09;98117.33;521950;1088;116454;-66
2021/08/06 10:02:57;;;;;;;1.43;1.28;;;;;;;14.59;83.17;98122.22;512547;1090;236216;-67
2021/08/06 10:13:04;;;;;;;1.38;1.28;;;;;;;14.86;83.02;98136.18;520533;1088;117220;-67
2021/08/06 10:23:11;;;;;;;1.53;0.77;;;;;;;14.90;82.64;98144.61;521588;1089;117250;-68
2021/08/06 10:33:22;;;;;;;1.97;1.17;;;;;;;14.77;82.24;98151.19;526196;1090;116176;-70
2021/08/06 10:43:42;;;;;;;0.80;0.80;;;;;;;14.36;82.59;98159.76;526257;1090;116385;-67
2021/08/06 10:54:09;;;;;;;1.20;0.63;;;;;;;14.08;82.68;98159.95;527137;1090;116316;-68
2021/08/06 11:04:46;;;;;;;1.77;0.90;;;;;;;13.90;82.90;98181.09;515459;1090;118335;-66
2021/08/06 11:15:11;;;;;;;1.10;0.85;;;;;;;13.78;83.58;98179.69;528145;1089;117582;-66
2021/08/06 11:25:22;;;;;;;1.45;0.90;;;;;;;13.80;83.51;98185.67;518452;1089;116483;-64
2021/08/06 11:35:32;;;;;;;2.30;1.13;;;;;;;13.82;83.79;98186.34;532420;1088;115953;-69
2021/08/06 11:45:39;;;;;;;1.97;1.20;;;;;;;13.89;83.84;98197.91;532459;1088;116806;-73
2021/08/06 11:55:47;;;;;;;1.20;1.05;;;;;;;13.75;83.72;98194.03;531751;1089;116485;-65
2021/08/06 12:05:59;;;;;;;1.03;1.03;;;;;;;13.59;83.73;98214.00;532542;1089;117142;-65
2021/08/06 12:16:11;;;;;;;1.77;1.33;;;;;;;13.57;84.03;98213.33;532400;1090;116771;-65
2021/08/06 12:26:22;;;;;;;1.03;1.00;;;;;;;13.41;84.16;98221.08;526352;1089;116981;-65
2021/08/06 12:36:28;;;;;;;0.83;0.80;;;;;;;13.27;84.09;98225.89;532532;1088;116093;-63
2021/08/06 12:46:35;;;;;;;1.10;1.00;;;;;;;13.37;84.18;98238.16;531762;1089;116414;-65
2021/08/06 12:56:55;;;;;;;1.50;1.30;;;;;;;13.50;84.34;98251.01;523791;1089;116682;-64
2021/08/06 13:07:03;;;;;;;2.20;1.30;;;;;;;13.76;83.76;98255.52;532455;1089;117760;-65
2021/08/06 13:17:10;;;;;;;2.80;1.00;;;;;;;13.78;83.38;98267.59;530529;1088;116787;-65
2021/08/06 13:27:17;;;;;;;1.63;1.20;;;;;;;13.86;83.31;98272.94;532533;1089;116481;-65
2021/08/06 13:37:24;;;;;;;2.80;1.80;;;;;;;13.87;83.49;98264.05;532499;1088;117048;-64
2021/08/06 13:47:30;;;;;;;1.73;1.43;;;;;;;13.70;83.66;98276.27;529842;1088;116098;-69
2021/08/06 13:57:38;;;;;;;1.17;1.00;;;;;;;13.70;83.73;98291.25;516627;1090;117064;-62
2021/08/06 14:07:45;;;;;;;2.80;1.20;;;;;;;13.58;84.12;98293.29;530408;1089;116340;-63
2021/08/06 14:17:54;;;;;;;1.43;1.13;;;;;;;13.40;84.09;98293.24;532446;1089;118196;-63
2021/08/06 14:28:01;;;;;;;1.30;0.90;;;;;;;13.23;84.26;98311.49;532455;1088;115875;-63
2021/08/06 14:38:07;;;;;;;1.53;1.00;;;;;;;13.44;84.52;98324.44;530751;1090;116030;-62
2021/08/06 14:48:14;;;;;;;1.10;0.83;;;;;;;13.66;84.21;98325.00;532415;1089;116417;-63
2021/08/06 14:58:22;;;;;;;0.88;0.88;;;;;;;13.85;83.91;98326.69;523250;1090;10001460;-64
2021/08/06 15:08:29;;;;;;;1.10;1.00;;;;;;;13.97;84.11;98332.56;532370;1088;116767;-63
2021/08/06 15:18:36;;;;;;;1.17;1.07;;;;;;;14.01;83.86;98341.00;520449;1089;115732;-62
2021/08/06 15:28:42;;;;;;;2.67;0.93;;;;;;;13.85;83.67;98358.35;514554;1090;117072;-62
2021/08/06 15:38:51;;;;;;;1.23;1.20;;;;;;;13.89;83.57;98365.96;523034;1089;116441;-63
2021/08/06 15:48:57;;;;;;;;;;;;;;;14.01;82.72;98373.48;532501;1088;115853;-63
2021/08/06 15:59:03;;;;;;;1.10;1.00;;;;;;;13.94;82.80;98375.09;532083;1090;102346;-63
2021/08/06 16:09:10;;;;;;;0.80;0.80;;;;;;;13.93;82.65;98383.14;532422;1088;117140;-63
2021/08/06 16:19:17;;;;;;;1.70;0.90;;;;;;;13.79;82.14;98376.56;527571;1090;117505;-62
2021/08/06 16:29:26;;;;;;;3.23;1.30;;;;;;;13.72;82.59;98382.45;518485;1089;116125;-62
2021/08/06 16:39:32;;;;;;;;;;;;;;;13.71;82.29;98388.70;526391;1089;118123;-62
2021/08/06 16:49:38;;;;;;;1.83;1.67;;;;;;;13.75;82.77;98386.61;532178;1089;102842;-63
2021/08/06 16:59:45;;;;;;;1.30;1.20;;;;;;;13.86;82.41;98388.19;532542;1088;116331;-62
2021/08/06 17:09:52;;;;;;;1.43;1.00;;;;;;;13.87;82.04;98389.84;518507;1088;116986;-63
2021/08/06 17:19:59;;;;;;;3.53;1.17;;;;;;;13.80;82.10;98388.80;519781;1089;117379;-63
2021/08/06 17:30:07;;;;;;;3.25;1.58;;;;;;;13.70;82.00;98386.20;532501;1089;117491;-63
2021/08/06 17:40:14;;;;;;;1.77;1.00;;;;;;;13.53;82.04;98383.39;531147;1089;115764;-63
2021/08/06 17:50:21;;;;;;;2.73;1.27;;;;;;;13.44;82.24;98389.55;530899;1089;117294;-63
2021/08/06 18:00:28;;;;;;;3.90;1.43;;;;;;;13.39;82.34;98387.31;532341;1090;115883;-63
2021/08/06 18:10:35;;;;;;;4.57;1.87;;;;;;;13.31;82.86;98392.48;530216;1089;116426;-62
2021/08/06 18:20:42;;;;;;;1.70;1.60;;;;;;;13.20;83.33;98400.56;517649;1089;116213;-63
2021/08/06 18:30:49;;;;;;;1.47;1.23;;;;;;;13.09;83.37;98396.31;532416;1089;116403;-63
2021/08/06 18:40:56;;;;;;;2.90;1.50;;;;;;;13.02;83.51;98401.33;531783;1089;116611;-63
2021/08/06 18:51:04;;;;;;;2.67;1.77;;;;;;;13.01;84.18;98418.13;532507;1090;117601;-63
2021/08/06 19:01:11;;;;;;;2.00;1.20;;;;;;;13.00;83.47;98422.55;521027;1089;116729;-64
2021/08/06 19:11:18;;;;;;;2.93;2.23;;;;;;;13.01;83.08;98424.20;514310;1089;116898;-63
2021/08/06 19:21:26;;;;;;;1.83;1.73;;;;;;;12.99;82.86;98454.33;517257;1089;117052;-62
2021/08/06 19:31:34;;;;;;;2.90;1.80;;;;;;;12.96;82.86;98449.31;515488;1089;116923;-62
2021/08/06 19:41:41;;;;;;;3.53;1.43;;;;;;;12.92;83.18;98450.58;526657;1090;117562;-63
2021/08/06 19:51:49;;;;;;;2.23;1.70;;;;;;;12.94;83.21;98453.91;532508;1088;118401;-62
2021/08/06 20:01:57;;;;;;;1.63;1.38;;;;;;;12.97;83.26;98459.73;531746;1089;116825;-63
2021/08/06 20:12:06;;;;;;;2.40;1.80;;;;;;;13.00;83.45;98464.70;521245;1089;116844;-62
2021/08/06 20:22:13;;;;;;;2.75;2.08;;;;;;;12.99;83.44;98467.50;532444;1089;116607;-63
2021/08/06 20:32:20;;;;;;;1.63;1.53;;;;;;;12.96;83.39;98460.70;531685;1090;117849;-65
2021/08/06 20:42:26;;;;;;;3.73;1.90;;;;;;;12.94;83.38;98467.92;532469;1090;117176;-70
2021/08/06 20:52:33;;;;;;;8.00;2.10;;;;;;;12.92;83.22;98474.30;530710;1089;116170;-69
2021/08/06 21:02:40;;;;;;;1.90;1.40;;;;;;;12.93;82.89;98491.77;518356;1089;117377;-70
2021/08/06 21:12:48;;;;;;;2.90;1.60;;;;;;;12.93;82.33;98489.13;532519;1088;116623;-70
2021/08/06 21:22:55;;;;;;;1.50;1.27;;;;;;;12.84;81.88;98502.16;528837;1089;116503;-70
2021/08/06 21:33:02;;;;;;;2.63;1.20;;;;;;;12.78;81.62;98496.63;532513;1088;117354;-70
2021/08/06 21:43:09;;;;;;;1.20;1.10;;;;;;;12.77;81.10;98510.77;529244;1090;116797;-68
2021/08/06 21:53:16;;;;;;;3.97;1.37;;;;;;;12.66;81.06;98517.83;531768;1088;116558;-70
2021/08/06 22:03:23;;;;;;;6.33;1.20;;;;;;;12.42;81.24;98516.43;527568;1089;117627;-70
2021/08/06 22:13:30;;;;;;;1.33;1.03;;;;;;;12.17;81.68;98526.50;531152;1088;116422;-68
2021/08/06 22:23:37;;;;;;;7.37;1.30;;;;;;;11.95;82.02;98537.20;529210;1090;117003;-68
2021/08/06 22:33:45;;;;;;;1.70;1.23;;;;;;;11.71;82.51;98533.92;523931;1089;116529;-68
2021/08/06 22:43:52;;;;;;;2.67;2.07;;;;;;;11.58;82.99;98517.53;531484;1088;117131;-69
2021/08/06 22:53:59;;;;;;;2.87;2.20;;;;;;;11.54;83.31;98510.88;532502;1089;116557;-68
2021/08/06 23:04:06;;;;;;;2.60;2.20;;;;;;;11.49;83.50;98512.12;532594;1089;117036;-69
2021/08/06 23:14:12;;;;;;;2.20;1.27;;;;;;;11.40;83.66;98522.56;531731;1089;116122;-68
2021/08/06 23:24:19;;;;;;;3.37;1.73;;;;;;;11.20;83.74;98528.55;532489;1088;115891;-69
2021/08/06 23:34:26;;;;;;;3.13;1.87;;;;;;;10.93;83.77;98537.77;532561;1088;116340;-69
2021/08/06 23:44:33;;;;;;;2.73;2.23;;;;;;;10.65;83.91;98533.95;532107;1090;173786;-69
2021/08/06 23:54:39;;;;;;;4.73;2.00;;;;;;;10.52;84.53;98539.34;532547;1088;116036;-68
